Ana Sayfa
METAR-TAF:

METAR-TAF

Havaalanları :

Bingöl Havalimanı

Bingöl, Türkiye

Enlem: 38-51-40N, Boylam: 40-35-33E, yükseklik: 1063 m

Güncel hava durumu gözlemi

Rapor saat 14:50 UTC de 7 saat ve 1 dakika önce yapıldı.
Rüzgar kuzeydan 4 kt, kuzeybatı ve kuzeydoğu arasında değişken
Sıcaklık 14°C
Nem 23%
Basınç 1021 hPa
Görüş mesafesi 10 km veya daha fazla
1500 m altında bulut yok ve kümülonimbus yok

METAR: LTCU 161450Z 35004KT 320V050 CAVOK 14/M07 Q1021

Saat: 00:51 (21:51 UTC)

Tahmin

Rapor saat 13:40 UTC de 8 saat ve 11 dakika önce yapıldı.
Ayın 16'si saat 15 UTC'den ayın 16'si saat 24 UTC'ye kadar geçerli Tahmin
Rüzgar değişken yönden 2 kt
Görüş mesafesi 10 km veya daha fazla
1500 m altında bulut yok ve kümülonimbus yok

TAF: LTCU 161340Z 1615/1624 VRB02KT CAVOK

4.000'den fazla havaalanı için hava durumu gözlemleri ve tahminleri (METAR ve TAF raporları).

Kullanılabilir istasyonlar harita üzerinde sarı ve kırmızı noktalarla gösterilir.

İstasyonun adını görmek için fareyi noktanın üzerinde gezdirin.

Sonrasında hava gözlem ve tahminlerini görmek için tıklayın.

Haritayı değiştirmek için: yaklaştırmak için siyah artı işaretli yeşil düğmeye ve uzaklaştırmak için de eksi işaretli düğmeye hızla tıklayın; bitişik haritalar için yeşil okları kullanın.


METAR-TAF: